createdAt,value
2018-09-20T00:01:01.140Z,17.36
2018-09-20T00:03:29.702Z,17.36
2018-09-20T00:05:58.130Z,17.35
2018-09-20T00:08:26.702Z,17.35
2018-09-20T00:10:55.477Z,17.38
2018-09-20T00:13:23.910Z,17.37
2018-09-20T00:15:52.626Z,17.36
2018-09-20T00:18:21.128Z,17.37
2018-09-20T00:20:49.577Z,17.36
2018-09-20T00:23:19.137Z,17.35
2018-09-20T00:25:48.058Z,17.33
2018-09-20T00:28:16.805Z,17.33
2018-09-20T00:30:45.745Z,17.30
2018-09-20T00:33:14.277Z,17.28
2018-09-20T00:35:42.710Z,17.26
2018-09-20T00:38:11.401Z,17.23
2018-09-20T00:40:39.870Z,17.19
2018-09-20T00:43:08.522Z,17.16
2018-09-20T00:45:37.146Z,17.15
2018-09-20T00:48:06.270Z,17.13
2018-09-20T00:50:34.724Z,17.09
2018-09-20T00:53:03.814Z,17.06
2018-09-20T00:55:32.309Z,17.03
2018-09-20T00:58:00.757Z,17.00
2018-09-20T01:00:29.371Z,16.98
2018-09-20T01:02:58.029Z,16.95
2018-09-20T01:05:26.460Z,16.93
2018-09-20T01:07:55.110Z,16.90
2018-09-20T01:10:23.577Z,16.91
2018-09-20T01:12:52.090Z,16.91
2018-09-20T01:15:20.858Z,16.91
2018-09-20T01:17:49.540Z,16.91
2018-09-20T01:20:18.077Z,16.94
2018-09-20T01:22:46.581Z,16.93
2018-09-20T01:25:15.746Z,16.93
2018-09-20T01:27:44.253Z,16.92
2018-09-20T01:30:13.811Z,16.91
2018-09-20T01:32:42.297Z,16.91
2018-09-20T01:35:10.762Z,16.91
2018-09-20T01:37:39.550Z,16.91
2018-09-20T01:40:14.402Z,16.92
2018-09-20T01:42:43.382Z,16.92
2018-09-20T01:45:12.670Z,16.92
2018-09-20T01:47:41.134Z,16.91
2018-09-20T01:50:09.573Z,16.90
2018-09-20T01:52:38.512Z,16.91
2018-09-20T01:55:07.006Z,16.89
2018-09-20T01:57:35.499Z,16.88
2018-09-20T02:00:04.265Z,16.88
2018-09-20T02:02:32.750Z,16.87
2018-09-20T02:05:01.237Z,16.88
2018-09-20T02:07:29.944Z,16.87
2018-09-20T02:09:58.422Z,16.86
2018-09-20T02:12:26.878Z,16.84
2018-09-20T02:14:55.668Z,16.85
2018-09-20T02:17:24.149Z,16.88
2018-09-20T02:19:52.920Z,16.92
2018-09-20T02:22:21.731Z,16.92
2018-09-20T02:24:50.206Z,16.94
2018-09-20T02:27:19.970Z,16.91
2018-09-20T02:29:49.717Z,16.90
2018-09-20T02:32:18.654Z,16.88
2018-09-20T02:34:47.782Z,16.87
2018-09-20T02:37:16.593Z,16.88
2018-09-20T02:39:45.084Z,16.91
2018-09-20T02:42:13.526Z,16.91
2018-09-20T02:44:42.045Z,16.95
2018-09-20T02:47:10.702Z,16.96
2018-09-20T02:49:39.145Z,16.96
2018-09-20T02:52:07.921Z,16.95
2018-09-20T02:54:36.412Z,16.97
2018-09-20T02:57:04.849Z,16.97
2018-09-20T02:59:33.366Z,16.95
2018-09-20T03:02:01.846Z,16.92
2018-09-20T03:04:30.693Z,16.75
2018-09-20T03:06:59.356Z,16.90
2018-09-20T03:09:27.840Z,16.91
2018-09-20T03:11:56.280Z,16.91
2018-09-20T03:14:24.809Z,16.91
2018-09-20T03:16:53.318Z,16.91
2018-09-20T03:19:21.749Z,16.90
2018-09-20T03:21:50.598Z,16.91
2018-09-20T03:24:19.077Z,16.91
2018-09-20T03:26:48.069Z,16.92
2018-09-20T03:29:17.473Z,16.93
2018-09-20T03:31:46.785Z,16.96
2018-09-20T03:34:15.310Z,17.00
2018-09-20T03:36:43.866Z,17.02
2018-09-20T03:39:12.854Z,17.00
2018-09-20T03:41:41.677Z,17.00
2018-09-20T03:44:10.578Z,17.00
2018-09-20T03:46:39.079Z,16.98
2018-09-20T03:49:07.909Z,16.93
2018-09-20T03:51:36.594Z,16.90
2018-09-20T03:54:05.118Z,16.87
2018-09-20T03:56:33.777Z,16.87
2018-09-20T03:59:02.401Z,16.86
2018-09-20T04:01:30.869Z,16.85
2018-09-20T04:03:59.325Z,16.84
2018-09-20T04:06:28.345Z,16.83
2018-09-20T04:08:56.885Z,16.84
2018-09-20T04:11:25.329Z,16.83
2018-09-20T04:13:53.993Z,16.83
2018-09-20T04:16:22.465Z,16.81
2018-09-20T04:18:50.891Z,16.81
2018-09-20T04:21:24.631Z,16.80
2018-09-20T04:23:53.545Z,16.80
2018-09-20T04:26:22.001Z,16.80
2018-09-20T04:28:50.507Z,16.80
2018-09-20T04:31:19.460Z,16.80
2018-09-20T04:33:48.398Z,16.80
2018-09-20T04:36:17.846Z,16.78
2018-09-20T04:38:46.577Z,16.76
2018-09-20T04:41:15.123Z,16.80
2018-09-20T04:43:43.585Z,16.79
2018-09-20T04:46:12.090Z,16.80
2018-09-20T04:48:40.529Z,16.82
2018-09-20T04:51:09.134Z,16.82
2018-09-20T04:53:37.674Z,16.82
2018-09-20T04:56:06.231Z,16.83
2018-09-20T04:58:34.721Z,16.87
2018-09-20T05:01:03.419Z,16.88
2018-09-20T05:03:31.846Z,16.90
2018-09-20T05:08:34.970Z,16.88
2018-09-20T05:11:03.586Z,16.89
2018-09-20T05:13:32.511Z,16.90
2018-09-20T05:16:01.473Z,16.89
2018-09-20T05:18:29.961Z,16.91
2018-09-20T05:20:58.858Z,16.92
2018-09-20T05:23:27.787Z,16.92
2018-09-20T05:25:56.699Z,16.94
2018-09-20T05:28:31.883Z,16.95
2018-09-20T05:31:00.391Z,16.97
2018-09-20T05:33:28.910Z,16.98
2018-09-20T05:35:57.500Z,17.00
2018-09-20T05:38:26.135Z,17.03
2018-09-20T05:40:54.566Z,17.04
2018-09-20T05:43:23.389Z,17.06
2018-09-20T05:45:51.886Z,17.07
2018-09-20T05:48:20.330Z,17.08
2018-09-20T05:50:48.965Z,17.11
2018-09-20T05:53:18.393Z,17.13
2018-09-20T05:55:47.282Z,17.15
2018-09-20T05:58:16.632Z,17.19
2018-09-20T06:00:46.659Z,17.21
2018-09-20T06:03:18.684Z,17.19
2018-09-20T06:05:47.694Z,17.18
2018-09-20T06:08:16.131Z,17.17
2018-09-20T06:10:44.610Z,17.01
2018-09-20T06:13:14.150Z,17.16
2018-09-20T06:15:42.857Z,17.17
2018-09-20T06:18:11.297Z,17.18
2018-09-20T06:20:39.901Z,17.18
2018-09-20T06:23:08.405Z,17.20
2018-09-20T06:25:36.870Z,17.23
2018-09-20T06:28:05.590Z,17.30
2018-09-20T06:30:34.019Z,17.35
2018-09-20T06:33:02.473Z,17.40
2018-09-20T06:35:31.458Z,17.55
2018-09-20T06:38:00.299Z,17.71
2018-09-20T06:40:28.734Z,17.91
2018-09-20T06:42:57.398Z,17.88
2018-09-20T06:45:25.841Z,17.68
2018-09-20T06:47:54.284Z,17.68
2018-09-20T06:50:23.480Z,17.75
2018-09-20T06:52:52.220Z,17.97
2018-09-20T06:55:20.966Z,18.23
2018-09-20T06:57:49.614Z,18.35
2018-09-20T07:00:18.637Z,18.52
2018-09-20T07:02:47.055Z,18.75
2018-09-20T07:05:15.645Z,18.94
2018-09-20T07:07:44.081Z,19.02
2018-09-20T07:10:12.505Z,19.16
2018-09-20T07:12:41.337Z,18.16
2018-09-20T07:15:10.010Z,19.18
2018-09-20T07:17:38.449Z,19.30
2018-09-20T07:20:07.667Z,19.39
2018-09-20T07:22:36.172Z,19.36
2018-09-20T07:25:04.713Z,19.36
2018-09-20T07:27:33.732Z,19.51
2018-09-20T07:30:02.166Z,19.44
2018-09-20T07:32:30.623Z,19.45
2018-09-20T07:34:59.577Z,19.40
2018-09-20T07:37:28.045Z,19.32
2018-09-20T07:39:57.675Z,19.32
2018-09-20T07:42:26.494Z,19.21
2018-09-20T07:44:54.981Z,19.25
2018-09-20T07:47:23.567Z,19.21
2018-09-20T07:49:52.201Z,19.27
2018-09-20T07:52:21.233Z,19.33
2018-09-20T07:54:49.851Z,19.55
2018-09-20T07:57:18.957Z,19.72
2018-09-20T07:59:49.016Z,19.80
2018-09-20T08:02:17.756Z,19.84
2018-09-20T08:04:47.763Z,19.77
2018-09-20T08:07:16.259Z,19.77
2018-09-20T08:09:45.127Z,19.79
2018-09-20T08:12:14.063Z,19.52
2018-09-20T08:14:42.494Z,19.58
2018-09-20T08:17:10.930Z,19.57
2018-09-20T08:19:39.813Z,19.40
2018-09-20T08:22:08.261Z,19.45
2018-09-20T08:24:37.001Z,19.59
2018-09-20T08:27:05.878Z,19.37
2018-09-20T08:29:34.325Z,19.27
2018-09-20T08:32:02.907Z,19.24
2018-09-20T08:34:31.818Z,19.20
2018-09-20T08:37:00.312Z,19.45
2018-09-20T08:39:28.774Z,19.57
2018-09-20T08:41:58.225Z,19.63
2018-09-20T08:44:26.810Z,19.82
2018-09-20T08:46:55.253Z,19.79
2018-09-20T08:49:24.385Z,19.71
2018-09-20T08:51:52.842Z,19.45
2018-09-20T08:54:21.277Z,19.32
2018-09-20T08:56:51.644Z,19.28
2018-09-20T08:59:20.709Z,19.35
2018-09-20T09:01:49.174Z,19.64
2018-09-20T09:04:18.702Z,19.61
2018-09-20T09:06:47.130Z,19.54
2018-09-20T09:09:15.582Z,19.41
2018-09-20T09:11:44.449Z,19.51
2018-09-20T09:14:12.873Z,19.45
2018-09-20T09:16:41.309Z,19.37
2018-09-20T09:19:10.101Z,19.63
2018-09-20T09:21:38.533Z,20.08
2018-09-20T09:24:07.264Z,20.35
2018-09-20T09:26:35.818Z,20.42
2018-09-20T09:29:04.278Z,20.44
2018-09-20T09:31:32.709Z,20.34
2018-09-20T09:34:01.651Z,20.38
2018-09-20T09:37:05.246Z,20.67
2018-09-20T09:39:34.197Z,20.38
2018-09-20T09:42:02.725Z,20.37
2018-09-20T09:44:31.174Z,20.29
2018-09-20T09:47:00.037Z,20.29
2018-09-20T09:49:28.494Z,19.92
2018-09-20T09:51:57.055Z,20.20
2018-09-20T09:54:26.200Z,20.63
2018-09-20T09:56:54.733Z,20.75
2018-09-20T09:59:23.510Z,21.03
2018-09-20T10:01:52.641Z,21.45
2018-09-20T10:04:21.100Z,21.51
2018-09-20T10:06:50.092Z,21.17
2018-09-20T10:09:19.444Z,20.89
2018-09-20T10:11:47.890Z,20.90
2018-09-20T10:14:16.651Z,20.62
2018-09-20T10:16:45.797Z,20.66
2018-09-20T10:19:14.583Z,20.65
2018-09-20T10:21:43.089Z,20.37
2018-09-20T10:24:12.063Z,19.89
2018-09-20T10:26:40.537Z,19.71
2018-09-20T10:29:08.994Z,19.56
2018-09-20T10:31:37.826Z,19.50
2018-09-20T10:34:06.670Z,19.46
2018-09-20T10:36:35.117Z,19.33
2018-09-20T10:39:04.967Z,19.09
2018-09-20T10:41:33.413Z,19.20
2018-09-20T10:44:02.135Z,19.29
2018-09-20T10:46:30.922Z,19.36
2018-09-20T10:49:01.203Z,19.59
2018-09-20T10:51:29.838Z,19.67
2018-09-20T10:53:58.766Z,19.61
2018-09-20T10:56:27.537Z,19.50
2018-09-20T10:58:56.034Z,19.28
2018-09-20T11:01:25.154Z,19.24
2018-09-20T11:03:53.855Z,19.07
2018-09-20T11:06:22.701Z,18.98
2018-09-20T11:08:51.704Z,18.92
2018-09-20T11:11:20.364Z,18.84
2018-09-20T11:13:48.966Z,18.81
2018-09-20T11:16:17.842Z,18.93
2018-09-20T11:18:46.329Z,19.00
2018-09-20T11:21:15.081Z,18.95
2018-09-20T11:23:43.914Z,18.96
2018-09-20T11:26:12.626Z,19.01
2018-09-20T11:28:41.067Z,19.00
2018-09-20T11:31:10.295Z,18.81
2018-09-20T11:33:38.989Z,18.77
2018-09-20T11:36:07.954Z,18.80
2018-09-20T11:38:37.361Z,18.90
2018-09-20T11:41:06.015Z,19.08
2018-09-20T11:43:34.463Z,19.18
2018-09-20T11:46:03.879Z,19.11
2018-09-20T11:48:32.700Z,19.11
2018-09-20T11:51:01.158Z,19.07
2018-09-20T11:53:29.978Z,19.19
2018-09-20T11:55:58.565Z,19.31
2018-09-20T11:58:27.005Z,19.46
2018-09-20T12:00:56.364Z,19.43
2018-09-20T12:03:25.700Z,19.30
2018-09-20T12:05:54.981Z,19.17
2018-09-20T12:08:25.133Z,19.20
2018-09-20T12:10:53.845Z,19.11
2018-09-20T12:13:22.311Z,19.18
2018-09-20T12:15:51.209Z,19.56
2018-09-20T12:18:19.687Z,19.88
2018-09-20T12:20:48.373Z,20.07
2018-09-20T12:23:16.961Z,20.02
2018-09-20T12:25:45.465Z,20.00
2018-09-20T12:28:14.089Z,19.93
2018-09-20T12:30:42.705Z,19.73
2018-09-20T12:33:11.162Z,19.25
2018-09-20T12:35:40.194Z,19.30
2018-09-20T12:38:08.792Z,19.23
2018-09-20T12:40:37.264Z,19.29
2018-09-20T12:43:05.828Z,19.27
2018-09-20T12:45:34.524Z,19.14
2018-09-20T12:48:03.504Z,19.04
2018-09-20T12:50:32.009Z,18.91
2018-09-20T12:53:00.972Z,18.88
2018-09-20T12:55:29.441Z,18.87
2018-09-20T12:57:58.081Z,17.98
2018-09-20T13:00:27.015Z,18.78
2018-09-20T13:02:55.732Z,18.75
2018-09-20T13:05:25.028Z,18.78
2018-09-20T13:07:53.982Z,18.73
2018-09-20T13:10:22.703Z,18.68
2018-09-20T13:12:51.270Z,18.68
2018-09-20T13:15:20.078Z,18.69
2018-09-20T13:17:48.521Z,18.70
2018-09-20T13:20:18.036Z,18.70
2018-09-20T13:22:47.179Z,18.79
2018-09-20T13:25:15.724Z,18.70
2018-09-20T13:27:44.682Z,18.63
2018-09-20T13:30:13.736Z,18.47
2018-09-20T13:32:42.182Z,18.60
2018-09-20T13:35:10.649Z,18.53
2018-09-20T13:37:39.757Z,18.48
2018-09-20T13:40:08.279Z,18.36
2018-09-20T13:42:36.748Z,18.30
2018-09-20T13:45:05.846Z,18.27
2018-09-20T13:47:34.282Z,18.30
2018-09-20T13:50:03.063Z,18.39
2018-09-20T13:52:32.095Z,18.43
2018-09-20T13:55:00.578Z,18.36
2018-09-20T13:57:29.276Z,18.33
2018-09-20T13:59:58.470Z,18.31
2018-09-20T14:02:26.928Z,18.32
2018-09-20T14:04:55.671Z,18.28
2018-09-20T14:07:24.578Z,18.24
2018-09-20T14:09:53.030Z,18.33
2018-09-20T14:12:21.578Z,18.37
2018-09-20T14:14:50.673Z,18.46
2018-09-20T14:17:19.116Z,18.47
2018-09-20T14:19:47.621Z,18.46
2018-09-20T14:22:16.705Z,18.43
2018-09-20T14:24:45.621Z,18.43
2018-09-20T14:27:14.102Z,18.37
2018-09-20T14:29:42.715Z,18.33
2018-09-20T14:32:11.756Z,18.31
2018-09-20T14:34:40.185Z,18.22
2018-09-20T14:37:08.853Z,18.23
2018-09-20T14:39:37.287Z,18.24
2018-09-20T14:42:05.850Z,18.32
2018-09-20T14:44:34.890Z,18.44
2018-09-20T14:47:03.818Z,18.48
2018-09-20T14:49:32.509Z,18.48
2018-09-20T14:52:01.734Z,18.39
2018-09-20T14:54:30.289Z,18.31
2018-09-20T14:56:59.053Z,18.28
2018-09-20T14:59:27.895Z,18.27
2018-09-20T15:01:57.192Z,18.47
2018-09-20T15:04:25.730Z,18.81
2018-09-20T15:06:54.769Z,18.94
2018-09-20T15:09:23.582Z,19.21
2018-09-20T15:11:52.074Z,19.43
2018-09-20T15:14:21.190Z,19.30
2018-09-20T15:16:49.694Z,19.25
2018-09-20T15:19:18.170Z,19.12
2018-09-20T15:21:46.713Z,18.98
2018-09-20T15:24:15.289Z,18.76
2018-09-20T15:26:43.765Z,18.18
2018-09-20T15:29:12.462Z,18.50
2018-09-20T15:31:40.920Z,18.42
2018-09-20T15:34:09.389Z,18.38
2018-09-20T15:36:38.017Z,18.36
2018-09-20T15:39:09.585Z,18.29
2018-09-20T15:41:38.193Z,18.21
2018-09-20T15:44:06.943Z,18.19
2018-09-20T15:46:35.478Z,18.21
2018-09-20T15:49:04.387Z,18.20
2018-09-20T15:51:32.948Z,18.18
2018-09-20T15:54:01.806Z,18.09
2018-09-20T15:56:30.430Z,18.01
2018-09-20T15:58:58.910Z,17.98
2018-09-20T16:01:27.942Z,17.93
2018-09-20T16:03:57.377Z,17.89
2018-09-20T16:06:26.905Z,17.83
2018-09-20T16:08:56.001Z,17.77
2018-09-20T16:11:25.169Z,17.74
2018-09-20T16:13:53.780Z,17.72
2018-09-20T16:16:22.263Z,17.70
2018-09-20T16:18:50.986Z,17.69
2018-09-20T16:21:19.441Z,17.63
2018-09-20T16:23:47.890Z,17.60
2018-09-20T16:26:16.906Z,17.57
2018-09-20T16:29:00.309Z,17.52
2018-09-20T16:32:41.614Z,17.47
2018-09-20T16:35:28.941Z,17.42
2018-09-20T16:38:32.343Z,17.38
2018-09-20T16:41:04.322Z,17.33
2018-09-20T16:43:32.823Z,17.32
2018-09-20T16:46:02.582Z,17.28
2018-09-20T16:48:31.130Z,17.25
2018-09-20T16:50:59.653Z,17.20
2018-09-20T16:53:28.597Z,17.17
2018-09-20T16:55:57.485Z,17.14
2018-09-20T16:58:26.739Z,17.11
2018-09-20T17:00:55.513Z,17.09
2018-09-20T17:03:24.408Z,17.07
2018-09-20T17:05:52.912Z,17.03
2018-09-20T17:08:21.444Z,16.86
2018-09-20T17:10:49.922Z,16.98
2018-09-20T17:13:19.246Z,16.96
2018-09-20T17:15:48.050Z,16.96
2018-09-20T17:18:16.551Z,16.95
2018-09-20T17:20:45.065Z,16.94
2018-09-20T17:23:14.001Z,16.93
2018-09-20T17:25:42.461Z,16.92
2018-09-20T17:28:10.945Z,16.91
2018-09-20T17:30:39.504Z,16.88
2018-09-20T17:33:07.957Z,16.86
2018-09-20T17:35:37.022Z,16.83
2018-09-20T17:38:06.752Z,16.80
2018-09-20T17:40:36.873Z,16.74
2018-09-20T17:43:07.857Z,16.67
2018-09-20T17:45:36.881Z,16.62
2018-09-20T17:48:05.421Z,16.56
2018-09-20T17:50:33.962Z,16.49
2018-09-20T17:53:02.933Z,16.46
2018-09-20T17:55:31.926Z,16.42
2018-09-20T17:58:01.378Z,16.39
2018-09-20T18:00:29.901Z,16.36
2018-09-20T18:02:58.393Z,16.35
2018-09-20T18:05:26.914Z,16.32
2018-09-20T18:07:56.799Z,16.31
2018-09-20T18:10:25.834Z,16.29
2018-09-20T18:12:54.785Z,16.22
2018-09-20T18:15:25.601Z,16.18
2018-09-20T18:17:54.914Z,16.16
2018-09-20T18:20:24.606Z,16.10
2018-09-20T18:22:53.715Z,16.09
2018-09-20T18:25:22.207Z,16.08
2018-09-20T18:27:50.749Z,16.08
2018-09-20T18:30:19.294Z,16.06
2018-09-20T18:32:47.789Z,16.05
2018-09-20T18:35:16.308Z,16.06
2018-09-20T18:37:44.999Z,16.08
2018-09-20T18:40:13.698Z,16.09
2018-09-20T18:42:42.176Z,16.09
2018-09-20T18:45:11.106Z,16.08
2018-09-20T18:47:39.799Z,16.08
2018-09-20T18:50:08.303Z,16.05
2018-09-20T18:52:37.213Z,16.03
2018-09-20T18:55:06.378Z,16.02
2018-09-20T18:57:34.992Z,15.99
2018-09-20T19:00:03.678Z,15.97
2018-09-20T19:02:32.189Z,15.96
2018-09-20T19:05:00.833Z,15.92
2018-09-20T19:07:36.283Z,15.88
2018-09-20T19:10:05.000Z,15.80
2018-09-20T19:12:33.538Z,15.65
2018-09-20T19:15:02.248Z,14.87
2018-09-20T19:17:31.101Z,15.43
2018-09-20T19:19:59.604Z,15.33
2018-09-20T19:22:28.516Z,15.28
2018-09-20T19:24:57.029Z,15.21
2018-09-20T19:27:25.841Z,15.15
2018-09-20T19:29:54.989Z,15.09
2018-09-20T19:32:23.744Z,15.07
2018-09-20T19:34:52.279Z,15.06
2018-09-20T19:37:21.033Z,15.06
2018-09-20T19:39:49.775Z,15.05
2018-09-20T19:42:18.260Z,15.04
2018-09-20T19:44:46.979Z,15.00
2018-09-20T19:47:15.431Z,14.97
2018-09-20T19:49:43.881Z,14.92
2018-09-20T19:52:12.520Z,14.87
2018-09-20T19:54:41.021Z,14.84
2018-09-20T19:57:09.664Z,14.78
2018-09-20T19:59:38.401Z,14.73
2018-09-20T20:02:07.350Z,14.66
2018-09-20T20:04:35.893Z,14.64
2018-09-20T20:07:04.774Z,14.61
2018-09-20T20:09:33.214Z,14.60
2018-09-20T20:12:01.682Z,14.63
2018-09-20T20:14:31.148Z,14.66
2018-09-20T20:16:59.626Z,14.63
2018-09-20T20:19:28.419Z,14.57
2018-09-20T20:21:57.309Z,14.49
2018-09-20T20:24:26.485Z,14.44
2018-09-20T20:26:55.041Z,14.39
2018-09-20T20:29:24.340Z,14.35
2018-09-20T20:31:52.827Z,14.34
2018-09-20T20:34:21.335Z,14.31
2018-09-20T20:36:50.237Z,14.25
2018-09-20T20:39:18.707Z,14.21
2018-09-20T20:41:47.413Z,14.19
2018-09-20T20:44:16.397Z,14.14
2018-09-20T20:46:44.880Z,14.09
2018-09-20T20:49:13.321Z,14.04
2018-09-20T20:51:41.909Z,14.04
2018-09-20T20:54:10.333Z,14.05
2018-09-20T20:56:39.101Z,14.04
2018-09-20T20:59:08.101Z,14.02
2018-09-20T21:01:36.586Z,13.97
2018-09-20T21:04:05.109Z,13.90
2018-09-20T21:06:34.029Z,13.90
2018-09-20T21:09:02.516Z,13.92
2018-09-20T21:11:31.057Z,13.92
2018-09-20T21:13:59.908Z,13.89
2018-09-20T21:16:28.390Z,13.87
2018-09-20T21:18:56.840Z,13.85
2018-09-20T21:21:26.507Z,13.87
2018-09-20T21:23:55.021Z,13.87
2018-09-20T21:26:23.658Z,13.87
2018-09-20T21:28:52.695Z,13.85
2018-09-20T21:31:21.148Z,13.84
2018-09-20T21:33:49.653Z,13.79
2018-09-20T21:36:18.274Z,13.78
2018-09-20T21:38:46.785Z,13.77
2018-09-20T21:41:15.259Z,13.73
2018-09-20T21:43:44.281Z,13.72
2018-09-20T21:46:13.305Z,13.68
2018-09-20T21:48:41.785Z,13.64
2018-09-20T21:51:10.564Z,13.61
2018-09-20T21:53:39.619Z,13.59
2018-09-20T21:56:08.381Z,13.55
2018-09-20T21:58:37.266Z,13.48
2018-09-20T22:01:05.837Z,13.47
2018-09-20T22:03:34.317Z,13.40
2018-09-20T22:06:03.055Z,13.36
2018-09-20T22:08:31.521Z,13.35
2018-09-20T22:10:59.989Z,13.34
2018-09-20T22:13:28.674Z,13.31
2018-09-20T22:15:57.141Z,13.31
2018-09-20T22:18:25.713Z,13.30
2018-09-20T22:20:54.377Z,13.25
2018-09-20T22:23:23.075Z,13.21
2018-09-20T22:25:51.773Z,13.19
2018-09-20T22:28:20.537Z,13.14
2018-09-20T22:30:49.005Z,13.13
2018-09-20T22:33:17.503Z,13.10
2018-09-20T22:35:46.306Z,13.09
2018-09-20T22:38:14.876Z,13.06
2018-09-20T22:40:43.441Z,13.03
2018-09-20T22:43:12.984Z,13.01
2018-09-20T22:45:41.731Z,13.00
2018-09-20T22:48:10.178Z,12.99
2018-09-20T22:50:38.910Z,12.99
2018-09-20T22:53:07.710Z,12.99
2018-09-20T22:55:36.521Z,13.01
2018-09-20T22:58:05.129Z,13.01
2018-09-20T23:00:33.579Z,13.04
2018-09-20T23:03:02.054Z,13.01
2018-09-20T23:05:30.661Z,13.05
2018-09-20T23:07:59.343Z,13.04
2018-09-20T23:10:27.786Z,13.00
2018-09-20T23:12:56.464Z,13.03
2018-09-20T23:15:25.519Z,13.00
2018-09-20T23:17:54.057Z,12.98
2018-09-20T23:20:23.108Z,12.19
2018-09-20T23:22:51.585Z,12.96
2018-09-20T23:25:20.173Z,12.95
2018-09-20T23:27:48.781Z,12.96
2018-09-20T23:30:17.270Z,12.95
2018-09-20T23:32:45.751Z,12.92
2018-09-20T23:35:14.638Z,12.92
2018-09-20T23:37:43.084Z,12.92
2018-09-20T23:40:11.564Z,12.92
2018-09-20T23:42:40.204Z,12.94
2018-09-20T23:45:08.725Z,12.92
2018-09-20T23:47:37.202Z,12.90
2018-09-20T23:50:06.247Z,12.90
2018-09-20T23:52:34.728Z,12.90
2018-09-20T23:55:03.229Z,12.93
2018-09-20T23:57:31.917Z,12.95
